sensor_id;sensor_type;location;lat;lon;timestamp;temperature;humidity
15394;DHT22;7795;47.986;11.868;2022-12-15T00:02:03;5.20;83.60
15394;DHT22;7795;47.986;11.868;2022-12-15T00:04:48;5.20;83.60
15394;DHT22;7795;47.986;11.868;2022-12-15T00:07:34;5.10;83.50
15394;DHT22;7795;47.986;11.868;2022-12-15T00:10:18;5.10;83.50
15394;DHT22;7795;47.986;11.868;2022-12-15T00:13:02;5.10;83.40
15394;DHT22;7795;47.986;11.868;2022-12-15T00:15:46;5.10;83.50
15394;DHT22;7795;47.986;11.868;2022-12-15T00:18:31;5.10;83.50
15394;DHT22;7795;47.986;11.868;2022-12-15T00:21:16;5.00;83.50
15394;DHT22;7795;47.986;11.868;2022-12-15T00:24:01;5.00;83.50
15394;DHT22;7795;47.986;11.868;2022-12-15T00:26:46;5.10;83.70
15394;DHT22;7795;47.986;11.868;2022-12-15T00:29:30;5.00;83.50
15394;DHT22;7795;47.986;11.868;2022-12-15T00:32:14;5.00;83.60
15394;DHT22;7795;47.986;11.868;2022-12-15T00:34:59;5.00;83.80
15394;DHT22;7795;47.986;11.868;2022-12-15T00:37:43;5.00;83.70
15394;DHT22;7795;47.986;11.868;2022-12-15T00:40:28;5.00;83.70
15394;DHT22;7795;47.986;11.868;2022-12-15T00:42:54;5.00;83.60
15394;DHT22;7795;47.986;11.868;2022-12-15T00:45:20;5.00;83.60
15394;DHT22;7795;47.986;11.868;2022-12-15T00:47:45;5.00;83.70
15394;DHT22;7795;47.986;11.868;2022-12-15T00:50:11;5.00;83.70
15394;DHT22;7795;47.986;11.868;2022-12-15T00:52:55;5.00;83.70
15394;DHT22;7795;47.986;11.868;2022-12-15T00:55:41;5.00;83.70
15394;DHT22;7795;47.986;11.868;2022-12-15T00:58:25;5.00;83.70
15394;DHT22;7795;47.986;11.868;2022-12-15T01:01:10;5.00;83.70
15394;DHT22;7795;47.986;11.868;2022-12-15T01:03:54;5.00;83.70
15394;DHT22;7795;47.986;11.868;2022-12-15T01:06:39;5.00;83.60
15394;DHT22;7795;47.986;11.868;2022-12-15T01:09:23;5.00;83.70
15394;DHT22;7795;47.986;11.868;2022-12-15T01:12:08;5.00;83.60
15394;DHT22;7795;47.986;11.868;2022-12-15T01:14:53;5.00;84.40
15394;DHT22;7795;47.986;11.868;2022-12-15T01:17:37;5.00;83.70
15394;DHT22;7795;47.986;11.868;2022-12-15T01:20:21;4.90;83.60
15394;DHT22;7795;47.986;11.868;2022-12-15T01:22:49;4.90;83.60
15394;DHT22;7795;47.986;11.868;2022-12-15T01:25:17;4.90;83.70
15394;DHT22;7795;47.986;11.868;2022-12-15T01:27:45;4.90;83.70
15394;DHT22;7795;47.986;11.868;2022-12-15T01:30:12;4.90;83.80
15394;DHT22;7795;47.986;11.868;2022-12-15T01:32:38;4.90;83.80
15394;DHT22;7795;47.986;11.868;2022-12-15T01:35:05;4.90;83.80
15394;DHT22;7795;47.986;11.868;2022-12-15T01:37:31;4.90;83.80
15394;DHT22;7795;47.986;11.868;2022-12-15T01:39:57;4.90;83.80
15394;DHT22;7795;47.986;11.868;2022-12-15T01:42:41;4.90;83.80
15394;DHT22;7795;47.986;11.868;2022-12-15T01:45:46;4.90;83.70
15394;DHT22;7795;47.986;11.868;2022-12-15T01:48:14;5.00;84.00
15394;DHT22;7795;47.986;11.868;2022-12-15T01:50:45;4.90;83.70
15394;DHT22;7795;47.986;11.868;2022-12-15T01:53:13;4.90;83.60
15394;DHT22;7795;47.986;11.868;2022-12-15T01:55:40;4.90;83.60
15394;DHT22;7795;47.986;11.868;2022-12-15T01:58:08;4.90;83.50
15394;DHT22;7795;47.986;11.868;2022-12-15T02:00:36;4.90;83.50
15394;DHT22;7795;47.986;11.868;2022-12-15T02:03:04;4.90;83.50
15394;DHT22;7795;47.986;11.868;2022-12-15T02:05:30;4.90;83.50
15394;DHT22;7795;47.986;11.868;2022-12-15T02:07:58;4.90;83.40
15394;DHT22;7795;47.986;11.868;2022-12-15T02:10:28;4.90;83.50
15394;DHT22;7795;47.986;11.868;2022-12-15T02:13:03;4.80;83.50
15394;DHT22;7795;47.986;11.868;2022-12-15T02:15:40;4.80;83.60
15394;DHT22;7795;47.986;11.868;2022-12-15T02:18:13;4.90;83.60
15394;DHT22;7795;47.986;11.868;2022-12-15T02:20:49;4.80;83.50
15394;DHT22;7795;47.986;11.868;2022-12-15T02:23:44;4.80;83.40
15394;DHT22;7795;47.986;11.868;2022-12-15T02:26:39;4.90;83.60
15394;DHT22;7795;47.986;11.868;2022-12-15T02:29:16;4.90;83.60
15394;DHT22;7795;47.986;11.868;2022-12-15T02:31:51;4.80;83.40
15394;DHT22;7795;47.986;11.868;2022-12-15T02:34:24;4.80;83.40
15394;DHT22;7795;47.986;11.868;2022-12-15T02:36:55;4.80;84.20
15394;DHT22;7795;47.986;11.868;2022-12-15T02:39:22;4.80;83.40
15394;DHT22;7795;47.986;11.868;2022-12-15T02:41:48;4.80;83.50
15394;DHT22;7795;47.986;11.868;2022-12-15T02:44:18;4.80;83.40
15394;DHT22;7795;47.986;11.868;2022-12-15T02:47:00;4.80;83.50
15394;DHT22;7795;47.986;11.868;2022-12-15T02:49:34;4.80;83.50
15394;DHT22;7795;47.986;11.868;2022-12-15T02:52:12;4.80;83.50
15394;DHT22;7795;47.986;11.868;2022-12-15T02:54:55;4.80;83.50
15394;DHT22;7795;47.986;11.868;2022-12-15T02:57:26;4.80;83.50
15394;DHT22;7795;47.986;11.868;2022-12-15T03:00:00;4.80;83.40
15394;DHT22;7795;47.986;11.868;2022-12-15T03:02:30;4.80;83.40
15394;DHT22;7795;47.986;11.868;2022-12-15T03:04:57;4.80;83.40
15394;DHT22;7795;47.986;11.868;2022-12-15T03:07:23;4.80;83.40
15394;DHT22;7795;47.986;11.868;2022-12-15T03:09:52;4.80;83.30
15394;DHT22;7795;47.986;11.868;2022-12-15T03:12:18;4.80;83.40
15394;DHT22;7795;47.986;11.868;2022-12-15T03:14:44;4.80;83.40
15394;DHT22;7795;47.986;11.868;2022-12-15T03:17:10;4.70;83.30
15394;DHT22;7795;47.986;11.868;2022-12-15T03:19:37;4.70;83.30
15394;DHT22;7795;47.986;11.868;2022-12-15T03:22:02;4.70;83.40
15394;DHT22;7795;47.986;11.868;2022-12-15T03:24:28;4.70;84.20
15394;DHT22;7795;47.986;11.868;2022-12-15T03:26:54;4.70;83.50
15394;DHT22;7795;47.986;11.868;2022-12-15T03:29:20;4.70;83.50
15394;DHT22;7795;47.986;11.868;2022-12-15T03:31:46;4.70;83.50
15394;DHT22;7795;47.986;11.868;2022-12-15T03:34:11;4.70;83.50
15394;DHT22;7795;47.986;11.868;2022-12-15T03:36:39;4.60;83.30
15394;DHT22;7795;47.986;11.868;2022-12-15T03:39:05;4.60;83.30
15394;DHT22;7795;47.986;11.868;2022-12-15T03:41:31;4.60;83.10
15394;DHT22;7795;47.986;11.868;2022-12-15T03:43:57;4.60;83.00
15394;DHT22;7795;47.986;11.868;2022-12-15T03:46:22;4.50;83.00
15394;DHT22;7795;47.986;11.868;2022-12-15T03:48:48;4.50;83.00
15394;DHT22;7795;47.986;11.868;2022-12-15T03:51:15;4.50;83.00
15394;DHT22;7795;47.986;11.868;2022-12-15T03:53:42;4.50;83.00
15394;DHT22;7795;47.986;11.868;2022-12-15T03:56:07;4.40;83.10
15394;DHT22;7795;47.986;11.868;2022-12-15T03:58:33;4.50;83.20
15394;DHT22;7795;47.986;11.868;2022-12-15T04:01:09;4.40;83.20
15394;DHT22;7795;47.986;11.868;2022-12-15T04:03:35;4.40;83.50
15394;DHT22;7795;47.986;11.868;2022-12-15T04:06:00;4.40;83.20
15394;DHT22;7795;47.986;11.868;2022-12-15T04:08:26;4.40;83.20
15394;DHT22;7795;47.986;11.868;2022-12-15T04:10:53;4.40;83.20
15394;DHT22;7795;47.986;11.868;2022-12-15T04:13:20;4.40;83.30
15394;DHT22;7795;47.986;11.868;2022-12-15T04:15:46;4.40;83.30
15394;DHT22;7795;47.986;11.868;2022-12-15T04:18:11;4.40;83.20
15394;DHT22;7795;47.986;11.868;2022-12-15T04:20:38;4.30;83.00
15394;DHT22;7795;47.986;11.868;2022-12-15T04:23:05;4.40;83.00
15394;DHT22;7795;47.986;11.868;2022-12-15T04:25:34;4.30;83.00
15394;DHT22;7795;47.986;11.868;2022-12-15T04:28:20;4.30;82.90
15394;DHT22;7795;47.986;11.868;2022-12-15T04:31:07;4.30;82.90
15394;DHT22;7795;47.986;11.868;2022-12-15T04:33:53;4.20;83.00
15394;DHT22;7795;47.986;11.868;2022-12-15T04:36:39;4.20;83.00
15394;DHT22;7795;47.986;11.868;2022-12-15T04:39:26;4.20;83.00
15394;DHT22;7795;47.986;11.868;2022-12-15T04:42:11;4.20;83.10
15394;DHT22;7795;47.986;11.868;2022-12-15T04:45:00;4.20;83.10
15394;DHT22;7795;47.986;11.868;2022-12-15T04:47:44;4.20;83.10
15394;DHT22;7795;47.986;11.868;2022-12-15T04:50:28;4.20;83.10
15394;DHT22;7795;47.986;11.868;2022-12-15T04:53:15;4.20;83.10
15394;DHT22;7795;47.986;11.868;2022-12-15T04:55:59;4.20;83.10
15394;DHT22;7795;47.986;11.868;2022-12-15T04:58:44;4.10;83.00
15394;DHT22;7795;47.986;11.868;2022-12-15T05:01:31;4.10;83.00
15394;DHT22;7795;47.986;11.868;2022-12-15T05:04:15;4.10;83.00
15394;DHT22;7795;47.986;11.868;2022-12-15T05:06:59;4.10;83.00
15394;DHT22;7795;47.986;11.868;2022-12-15T05:09:44;4.10;83.00
15394;DHT22;7795;47.986;11.868;2022-12-15T05:12:28;4.10;83.00
15394;DHT22;7795;47.986;11.868;2022-12-15T05:15:12;4.10;82.90
15394;DHT22;7795;47.986;11.868;2022-12-15T05:17:58;4.10;82.90
15394;DHT22;7795;47.986;11.868;2022-12-15T05:20:43;4.10;82.90
15394;DHT22;7795;47.986;11.868;2022-12-15T05:23:27;4.10;82.90
15394;DHT22;7795;47.986;11.868;2022-12-15T05:26:11;4.00;82.80
15394;DHT22;7795;47.986;11.868;2022-12-15T05:28:56;4.00;82.80
15394;DHT22;7795;47.986;11.868;2022-12-15T05:31:40;4.00;83.50
15394;DHT22;7795;47.986;11.868;2022-12-15T05:34:19;4.00;82.80
15394;DHT22;7795;47.986;11.868;2022-12-15T05:36:45;4.00;82.90
15394;DHT22;7795;47.986;11.868;2022-12-15T05:39:10;4.00;82.90
15394;DHT22;7795;47.986;11.868;2022-12-15T05:41:36;4.00;82.90
15394;DHT22;7795;47.986;11.868;2022-12-15T05:44:02;4.00;83.00
15394;DHT22;7795;47.986;11.868;2022-12-15T05:46:27;4.00;83.00
15394;DHT22;7795;47.986;11.868;2022-12-15T05:48:53;4.00;83.00
15394;DHT22;7795;47.986;11.868;2022-12-15T05:51:20;4.00;82.90
15394;DHT22;7795;47.986;11.868;2022-12-15T05:53:46;4.00;83.00
15394;DHT22;7795;47.986;11.868;2022-12-15T05:56:13;4.00;82.90
15394;DHT22;7795;47.986;11.868;2022-12-15T05:58:40;4.00;82.90
15394;DHT22;7795;47.986;11.868;2022-12-15T06:01:08;4.00;82.90
15394;DHT22;7795;47.986;11.868;2022-12-15T06:03:35;3.90;82.80
15394;DHT22;7795;47.986;11.868;2022-12-15T06:06:00;4.00;83.70
15394;DHT22;7795;47.986;11.868;2022-12-15T06:08:30;4.00;82.90
15394;DHT22;7795;47.986;11.868;2022-12-15T06:10:56;3.90;82.90
15394;DHT22;7795;47.986;11.868;2022-12-15T06:13:22;3.90;82.90
15394;DHT22;7795;47.986;11.868;2022-12-15T06:15:55;3.90;82.80
15394;DHT22;7795;47.986;11.868;2022-12-15T06:18:22;3.90;82.80
15394;DHT22;7795;47.986;11.868;2022-12-15T06:20:48;3.90;82.80
15394;DHT22;7795;47.986;11.868;2022-12-15T06:23:14;3.90;82.80
15394;DHT22;7795;47.986;11.868;2022-12-15T06:25:41;3.90;82.90
15394;DHT22;7795;47.986;11.868;2022-12-15T06:28:07;3.90;82.90
15394;DHT22;7795;47.986;11.868;2022-12-15T06:30:33;3.90;82.90
15394;DHT22;7795;47.986;11.868;2022-12-15T06:32:58;3.90;83.00
15394;DHT22;7795;47.986;11.868;2022-12-15T06:35:24;3.90;83.00
15394;DHT22;7795;47.986;11.868;2022-12-15T06:37:50;3.90;83.00
15394;DHT22;7795;47.986;11.868;2022-12-15T06:40:15;3.90;83.00
15394;DHT22;7795;47.986;11.868;2022-12-15T06:42:42;3.90;82.90
15394;DHT22;7795;47.986;11.868;2022-12-15T06:45:09;3.90;83.00
15394;DHT22;7795;47.986;11.868;2022-12-15T06:47:35;3.90;83.00
15394;DHT22;7795;47.986;11.868;2022-12-15T06:50:00;3.90;82.90
15394;DHT22;7795;47.986;11.868;2022-12-15T06:52:26;3.90;83.00
15394;DHT22;7795;47.986;11.868;2022-12-15T06:54:52;3.90;83.00
15394;DHT22;7795;47.986;11.868;2022-12-15T06:57:18;3.80;82.80
15394;DHT22;7795;47.986;11.868;2022-12-15T06:59:45;3.80;82.80
15394;DHT22;7795;47.986;11.868;2022-12-15T07:02:14;3.80;82.90
15394;DHT22;7795;47.986;11.868;2022-12-15T07:04:40;3.80;82.90
15394;DHT22;7795;47.986;11.868;2022-12-15T07:07:07;3.80;82.90
15394;DHT22;7795;47.986;11.868;2022-12-15T07:09:33;3.80;82.90
15394;DHT22;7795;47.986;11.868;2022-12-15T07:11:59;3.80;82.90
15394;DHT22;7795;47.986;11.868;2022-12-15T07:14:25;3.70;82.80
15394;DHT22;7795;47.986;11.868;2022-12-15T07:16:52;3.70;82.80
15394;DHT22;7795;47.986;11.868;2022-12-15T07:19:18;3.70;83.50
15394;DHT22;7795;47.986;11.868;2022-12-15T07:21:43;3.70;82.80
15394;DHT22;7795;47.986;11.868;2022-12-15T07:24:10;3.70;82.80
15394;DHT22;7795;47.986;11.868;2022-12-15T07:26:36;3.70;82.80
15394;DHT22;7795;47.986;11.868;2022-12-15T07:29:02;3.70;82.80
15394;DHT22;7795;47.986;11.868;2022-12-15T07:31:29;3.70;82.90
15394;DHT22;7795;47.986;11.868;2022-12-15T07:33:57;3.70;83.00
15394;DHT22;7795;47.986;11.868;2022-12-15T07:36:23;3.70;83.00
15394;DHT22;7795;47.986;11.868;2022-12-15T07:38:49;3.70;82.90
15394;DHT22;7795;47.986;11.868;2022-12-15T07:41:15;3.70;83.00
15394;DHT22;7795;47.986;11.868;2022-12-15T07:43:41;3.70;82.90
15394;DHT22;7795;47.986;11.868;2022-12-15T07:46:06;3.70;82.90
15394;DHT22;7795;47.986;11.868;2022-12-15T07:48:33;3.70;83.50
15394;DHT22;7795;47.986;11.868;2022-12-15T07:51:05;3.70;82.70
15394;DHT22;7795;47.986;11.868;2022-12-15T07:53:30;3.60;82.50
15394;DHT22;7795;47.986;11.868;2022-12-15T07:55:57;3.60;82.40
15394;DHT22;7795;47.986;11.868;2022-12-15T07:58:23;3.60;82.40
15394;DHT22;7795;47.986;11.868;2022-12-15T08:00:49;3.50;82.40
15394;DHT22;7795;47.986;11.868;2022-12-15T08:03:15;3.50;82.30
15394;DHT22;7795;47.986;11.868;2022-12-15T08:05:41;3.50;82.40
15394;DHT22;7795;47.986;11.868;2022-12-15T08:08:08;3.50;82.50
15394;DHT22;7795;47.986;11.868;2022-12-15T08:10:37;3.50;82.50
15394;DHT22;7795;47.986;11.868;2022-12-15T08:13:03;3.40;82.30
15394;DHT22;7795;47.986;11.868;2022-12-15T08:15:29;3.50;82.40
15394;DHT22;7795;47.986;11.868;2022-12-15T08:17:55;3.40;82.40
15394;DHT22;7795;47.986;11.868;2022-12-15T08:20:20;3.40;82.60
15394;DHT22;7795;47.986;11.868;2022-12-15T08:22:46;3.40;82.60
15394;DHT22;7795;47.986;11.868;2022-12-15T08:25:14;3.40;82.60
15394;DHT22;7795;47.986;11.868;2022-12-15T08:27:39;3.40;82.60
15394;DHT22;7795;47.986;11.868;2022-12-15T08:30:06;3.50;82.80
15394;DHT22;7795;47.986;11.868;2022-12-15T08:32:32;3.50;82.70
15394;DHT22;7795;47.986;11.868;2022-12-15T08:34:58;3.50;82.60
15394;DHT22;7795;47.986;11.868;2022-12-15T08:37:23;3.50;82.60
15394;DHT22;7795;47.986;11.868;2022-12-15T08:39:49;3.40;83.30
15394;DHT22;7795;47.986;11.868;2022-12-15T08:42:16;3.50;82.60
15394;DHT22;7795;47.986;11.868;2022-12-15T08:44:42;3.50;82.60
15394;DHT22;7795;47.986;11.868;2022-12-15T08:47:08;3.50;82.60
15394;DHT22;7795;47.986;11.868;2022-12-15T08:49:33;3.50;82.60
15394;DHT22;7795;47.986;11.868;2022-12-15T08:52:00;3.50;82.60
15394;DHT22;7795;47.986;11.868;2022-12-15T08:54:25;3.50;82.60
15394;DHT22;7795;47.986;11.868;2022-12-15T08:56:51;3.50;82.80
15394;DHT22;7795;47.986;11.868;2022-12-15T08:59:18;3.50;82.80
15394;DHT22;7795;47.986;11.868;2022-12-15T09:01:44;3.60;82.90
15394;DHT22;7795;47.986;11.868;2022-12-15T09:04:09;3.60;82.90
15394;DHT22;7795;47.986;11.868;2022-12-15T09:06:35;3.60;82.80
15394;DHT22;7795;47.986;11.868;2022-12-15T09:09:04;3.60;82.70
15394;DHT22;7795;47.986;11.868;2022-12-15T09:11:30;3.60;82.60
15394;DHT22;7795;47.986;11.868;2022-12-15T09:13:57;3.70;82.60
15394;DHT22;7795;47.986;11.868;2022-12-15T09:16:24;3.70;82.60
15394;DHT22;7795;47.986;11.868;2022-12-15T09:18:51;3.70;82.60
15394;DHT22;7795;47.986;11.868;2022-12-15T09:21:19;3.70;82.50
15394;DHT22;7795;47.986;11.868;2022-12-15T09:23:47;3.70;82.50
15394;DHT22;7795;47.986;11.868;2022-12-15T09:26:14;3.80;82.60
15394;DHT22;7795;47.986;11.868;2022-12-15T09:28:40;3.80;82.50
15394;DHT22;7795;47.986;11.868;2022-12-15T09:31:11;3.80;82.30
15394;DHT22;7795;47.986;11.868;2022-12-15T09:33:40;3.80;82.30
15394;DHT22;7795;47.986;11.868;2022-12-15T09:36:06;3.80;82.00
15394;DHT22;7795;47.986;11.868;2022-12-15T09:38:33;3.80;82.70
15394;DHT22;7795;47.986;11.868;2022-12-15T09:41:06;3.80;81.90
15394;DHT22;7795;47.986;11.868;2022-12-15T09:43:33;3.80;82.00
15394;DHT22;7795;47.986;11.868;2022-12-15T09:46:02;3.80;82.00
15394;DHT22;7795;47.986;11.868;2022-12-15T09:48:40;3.90;82.20
15394;DHT22;7795;47.986;11.868;2022-12-15T09:51:09;3.90;82.30
15394;DHT22;7795;47.986;11.868;2022-12-15T09:53:37;3.90;82.30
15394;DHT22;7795;47.986;11.868;2022-12-15T09:56:06;3.90;82.30
15394;DHT22;7795;47.986;11.868;2022-12-15T09:58:42;4.00;82.30
15394;DHT22;7795;47.986;11.868;2022-12-15T10:01:13;4.00;82.30
15394;DHT22;7795;47.986;11.868;2022-12-15T10:03:53;4.00;82.20
15394;DHT22;7795;47.986;11.868;2022-12-15T10:06:22;4.00;82.30
15394;DHT22;7795;47.986;11.868;2022-12-15T10:08:55;4.10;82.30
15394;DHT22;7795;47.986;11.868;2022-12-15T10:11:31;4.10;82.20
15394;DHT22;7795;47.986;11.868;2022-12-15T10:14:06;4.10;82.10
15394;DHT22;7795;47.986;11.868;2022-12-15T10:16:44;4.10;82.00
15394;DHT22;7795;47.986;11.868;2022-12-15T10:19:18;4.20;81.90
15394;DHT22;7795;47.986;11.868;2022-12-15T10:21:45;4.20;81.80
15394;DHT22;7795;47.986;11.868;2022-12-15T10:24:15;4.20;81.90
15394;DHT22;7795;47.986;11.868;2022-12-15T10:26:42;4.20;81.90
15394;DHT22;7795;47.986;11.868;2022-12-15T10:29:27;4.20;81.80
15394;DHT22;7795;47.986;11.868;2022-12-15T10:32:00;4.30;81.90
15394;DHT22;7795;47.986;11.868;2022-12-15T10:34:34;4.30;81.80
15394;DHT22;7795;47.986;11.868;2022-12-15T10:37:02;4.30;81.70
15394;DHT22;7795;47.986;11.868;2022-12-15T10:39:36;4.30;81.60
15394;DHT22;7795;47.986;11.868;2022-12-15T10:42:17;4.30;81.50
15394;DHT22;7795;47.986;11.868;2022-12-15T10:44:46;4.40;81.60
15394;DHT22;7795;47.986;11.868;2022-12-15T10:47:18;4.40;81.60
15394;DHT22;7795;47.986;11.868;2022-12-15T10:49:45;4.40;81.50
15394;DHT22;7795;47.986;11.868;2022-12-15T10:52:18;4.40;81.50
15394;DHT22;7795;47.986;11.868;2022-12-15T10:54:47;4.40;81.50
15394;DHT22;7795;47.986;11.868;2022-12-15T10:57:20;4.40;81.50
15394;DHT22;7795;47.986;11.868;2022-12-15T10:59:46;4.50;81.40
15394;DHT22;7795;47.986;11.868;2022-12-15T11:02:33;4.50;81.30
15394;DHT22;7795;47.986;11.868;2022-12-15T11:05:04;4.50;81.00
15394;DHT22;7795;47.986;11.868;2022-12-15T11:07:36;4.50;81.10
15394;DHT22;7795;47.986;11.868;2022-12-15T11:10:14;4.50;81.10
15394;DHT22;7795;47.986;11.868;2022-12-15T11:12:40;4.50;81.10
15394;DHT22;7795;47.986;11.868;2022-12-15T11:15:38;4.50;81.20
15394;DHT22;7795;47.986;11.868;2022-12-15T11:18:12;4.60;81.20
15394;DHT22;7795;47.986;11.868;2022-12-15T11:20:44;4.60;81.10
15394;DHT22;7795;47.986;11.868;2022-12-15T11:23:18;4.60;80.90
15394;DHT22;7795;47.986;11.868;2022-12-15T11:25:50;4.60;80.80
15394;DHT22;7795;47.986;11.868;2022-12-15T11:28:20;4.60;81.00
15394;DHT22;7795;47.986;11.868;2022-12-15T11:30:52;4.60;81.00
15394;DHT22;7795;47.986;11.868;2022-12-15T11:33:20;4.60;80.80
15394;DHT22;7795;47.986;11.868;2022-12-15T11:35:57;4.60;81.00
15394;DHT22;7795;47.986;11.868;2022-12-15T11:38:31;4.60;80.90
15394;DHT22;7795;47.986;11.868;2022-12-15T11:41:04;4.60;80.80
15394;DHT22;7795;47.986;11.868;2022-12-15T11:43:44;4.60;80.70
15394;DHT22;7795;47.986;11.868;2022-12-15T11:46:19;4.60;80.70
15394;DHT22;7795;47.986;11.868;2022-12-15T11:49:00;4.60;80.70
15394;DHT22;7795;47.986;11.868;2022-12-15T11:51:38;4.60;80.50
15394;DHT22;7795;47.986;11.868;2022-12-15T11:54:14;4.60;80.50
15394;DHT22;7795;47.986;11.868;2022-12-15T11:56:46;4.60;80.70
15394;DHT22;7795;47.986;11.868;2022-12-15T11:59:49;4.60;80.80
15394;DHT22;7795;47.986;11.868;2022-12-15T12:02:42;4.60;80.90
15394;DHT22;7795;47.986;11.868;2022-12-15T12:05:26;4.60;81.00
15394;DHT22;7795;47.986;11.868;2022-12-15T12:08:00;4.60;81.00
15394;DHT22;7795;47.986;11.868;2022-12-15T12:10:33;4.60;81.00
15394;DHT22;7795;47.986;11.868;2022-12-15T12:13:10;4.60;80.90
15394;DHT22;7795;47.986;11.868;2022-12-15T12:15:46;4.60;80.80
15394;DHT22;7795;47.986;11.868;2022-12-15T12:18:19;4.60;80.90
15394;DHT22;7795;47.986;11.868;2022-12-15T12:20:49;4.60;80.80
15394;DHT22;7795;47.986;11.868;2022-12-15T12:23:21;4.60;80.70
15394;DHT22;7795;47.986;11.868;2022-12-15T12:25:55;4.60;80.70
15394;DHT22;7795;47.986;11.868;2022-12-15T12:28:26;4.60;80.80
15394;DHT22;7795;47.986;11.868;2022-12-15T12:30:55;4.60;80.70
15394;DHT22;7795;47.986;11.868;2022-12-15T12:33:31;4.60;80.70
15394;DHT22;7795;47.986;11.868;2022-12-15T12:36:03;4.60;80.80
15394;DHT22;7795;47.986;11.868;2022-12-15T12:38:35;4.60;81.60
15394;DHT22;7795;47.986;11.868;2022-12-15T12:41:08;4.60;80.90
15394;DHT22;7795;47.986;11.868;2022-12-15T12:43:37;4.60;81.00
15394;DHT22;7795;47.986;11.868;2022-12-15T12:46:08;4.60;81.10
15394;DHT22;7795;47.986;11.868;2022-12-15T12:48:38;4.60;81.00
15394;DHT22;7795;47.986;11.868;2022-12-15T12:51:22;4.60;81.00
15394;DHT22;7795;47.986;11.868;2022-12-15T12:53:50;4.60;81.00
15394;DHT22;7795;47.986;11.868;2022-12-15T12:56:41;4.60;80.80
15394;DHT22;7795;47.986;11.868;2022-12-15T12:59:32;4.70;80.40
15394;DHT22;7795;47.986;11.868;2022-12-15T13:02:42;4.60;80.20
15394;DHT22;7795;47.986;11.868;2022-12-15T13:05:26;4.60;80.10
15394;DHT22;7795;47.986;11.868;2022-12-15T13:08:15;4.60;80.10
15394;DHT22;7795;47.986;11.868;2022-12-15T13:10:44;4.60;80.30
15394;DHT22;7795;47.986;11.868;2022-12-15T13:13:40;4.50;80.30
15394;DHT22;7795;47.986;11.868;2022-12-15T13:16:12;4.50;80.40
15394;DHT22;7795;47.986;11.868;2022-12-15T13:18:57;4.50;80.50
15394;DHT22;7795;47.986;11.868;2022-12-15T13:21:59;4.50;80.60
15394;DHT22;7795;47.986;11.868;2022-12-15T13:24:32;4.50;80.70
15394;DHT22;7795;47.986;11.868;2022-12-15T13:27:12;4.50;80.70
15394;DHT22;7795;47.986;11.868;2022-12-15T13:29:58;4.50;80.70
15394;DHT22;7795;47.986;11.868;2022-12-15T13:32:28;4.40;80.60
15394;DHT22;7795;47.986;11.868;2022-12-15T13:34:55;4.40;80.80
15394;DHT22;7795;47.986;11.868;2022-12-15T13:37:40;4.40;80.80
15394;DHT22;7795;47.986;11.868;2022-12-15T13:40:25;4.40;81.00
15394;DHT22;7795;47.986;11.868;2022-12-15T13:42:57;4.40;81.00
15394;DHT22;7795;47.986;11.868;2022-12-15T13:45:40;4.40;81.70
15394;DHT22;7795;47.986;11.868;2022-12-15T13:48:29;4.40;81.00
15394;DHT22;7795;47.986;11.868;2022-12-15T13:51:14;4.40;80.80
15394;DHT22;7795;47.986;11.868;2022-12-15T13:53:45;4.40;80.80
15394;DHT22;7795;47.986;11.868;2022-12-15T13:56:23;4.40;80.80
15394;DHT22;7795;47.986;11.868;2022-12-15T13:58:56;4.40;80.80
15394;DHT22;7795;47.986;11.868;2022-12-15T14:01:25;4.30;80.90
15394;DHT22;7795;47.986;11.868;2022-12-15T14:04:05;4.40;81.00
15394;DHT22;7795;47.986;11.868;2022-12-15T14:06:44;4.30;80.90
15394;DHT22;7795;47.986;11.868;2022-12-15T14:09:13;4.30;80.80
15394;DHT22;7795;47.986;11.868;2022-12-15T14:11:40;4.30;80.80
15394;DHT22;7795;47.986;11.868;2022-12-15T14:14:19;4.30;80.80
15394;DHT22;7795;47.986;11.868;2022-12-15T14:16:45;4.30;80.90
15394;DHT22;7795;47.986;11.868;2022-12-15T14:19:17;4.20;80.80
15394;DHT22;7795;47.986;11.868;2022-12-15T14:21:48;4.20;80.90
15394;DHT22;7795;47.986;11.868;2022-12-15T14:24:24;4.20;80.90
15394;DHT22;7795;47.986;11.868;2022-12-15T14:26:50;4.20;81.00
15394;DHT22;7795;47.986;11.868;2022-12-15T14:29:17;4.20;81.00
15394;DHT22;7795;47.986;11.868;2022-12-15T14:31:47;4.20;80.90
15394;DHT22;7795;47.986;11.868;2022-12-15T14:34:26;4.10;80.90
15394;DHT22;7795;47.986;11.868;2022-12-15T14:36:55;4.10;80.90
15394;DHT22;7795;47.986;11.868;2022-12-15T14:39:25;4.10;81.00
15394;DHT22;7795;47.986;11.868;2022-12-15T14:41:53;4.10;81.00
15394;DHT22;7795;47.986;11.868;2022-12-15T14:44:32;4.10;81.00
15394;DHT22;7795;47.986;11.868;2022-12-15T14:47:01;4.10;81.10
15394;DHT22;7795;47.986;11.868;2022-12-15T14:49:30;4.10;81.20
15394;DHT22;7795;47.986;11.868;2022-12-15T14:51:59;4.10;81.20
15394;DHT22;7795;47.986;11.868;2022-12-15T14:54:31;4.10;81.30
15394;DHT22;7795;47.986;11.868;2022-12-15T14:56:59;4.10;81.20
15394;DHT22;7795;47.986;11.868;2022-12-15T14:59:30;4.10;81.20
15394;DHT22;7795;47.986;11.868;2022-12-15T15:02:00;4.10;81.20
15394;DHT22;7795;47.986;11.868;2022-12-15T15:04:29;4.10;81.20
15394;DHT22;7795;47.986;11.868;2022-12-15T15:06:57;4.00;81.10
15394;DHT22;7795;47.986;11.868;2022-12-15T15:09:25;4.00;81.10
15394;DHT22;7795;47.986;11.868;2022-12-15T15:11:53;4.00;81.20
15394;DHT22;7795;47.986;11.868;2022-12-15T15:14:23;4.00;81.20
15394;DHT22;7795;47.986;11.868;2022-12-15T15:17:14;4.00;81.30
15394;DHT22;7795;47.986;11.868;2022-12-15T15:19:46;4.00;81.50
15394;DHT22;7795;47.986;11.868;2022-12-15T15:22:27;3.90;81.20
15394;DHT22;7795;47.986;11.868;2022-12-15T15:24:55;3.90;81.20
15394;DHT22;7795;47.986;11.868;2022-12-15T15:27:30;3.90;81.20
15394;DHT22;7795;47.986;11.868;2022-12-15T15:30:18;3.80;81.90
15394;DHT22;7795;47.986;11.868;2022-12-15T15:32:54;3.80;81.30
15394;DHT22;7795;47.986;11.868;2022-12-15T15:35:21;3.80;81.40
15394;DHT22;7795;47.986;11.868;2022-12-15T15:37:47;3.70;81.50
15394;DHT22;7795;47.986;11.868;2022-12-15T15:40:15;3.70;81.60
15394;DHT22;7795;47.986;11.868;2022-12-15T15:42:41;3.70;81.70
15394;DHT22;7795;47.986;11.868;2022-12-15T15:45:10;3.70;81.70
15394;DHT22;7795;47.986;11.868;2022-12-15T15:47:38;3.70;81.70
15394;DHT22;7795;47.986;11.868;2022-12-15T15:50:11;3.70;81.60
15394;DHT22;7795;47.986;11.868;2022-12-15T15:52:37;3.70;81.80
15394;DHT22;7795;47.986;11.868;2022-12-15T15:55:04;3.60;81.60
15394;DHT22;7795;47.986;11.868;2022-12-15T15:57:30;3.60;81.60
15394;DHT22;7795;47.986;11.868;2022-12-15T15:59:56;3.60;81.70
15394;DHT22;7795;47.986;11.868;2022-12-15T16:02:21;3.60;81.80
15394;DHT22;7795;47.986;11.868;2022-12-15T16:04:47;3.50;81.70
15394;DHT22;7795;47.986;11.868;2022-12-15T16:07:18;3.50;81.90
15394;DHT22;7795;47.986;11.868;2022-12-15T16:09:47;3.50;82.00
15394;DHT22;7795;47.986;11.868;2022-12-15T16:12:23;3.40;82.00
15394;DHT22;7795;47.986;11.868;2022-12-15T16:14:49;3.40;82.30
15394;DHT22;7795;47.986;11.868;2022-12-15T16:17:16;3.40;82.30
15394;DHT22;7795;47.986;11.868;2022-12-15T16:19:42;3.40;82.40